sensor_id;sensor_type;location;lat;lon;timestamp;temperature;humidity
15288;DHT22;7745;48.708;9.026;2024-02-16T00:00:12;9.60;99.90
15288;DHT22;7745;48.708;9.026;2024-02-16T00:02:39;9.50;99.90
15288;DHT22;7745;48.708;9.026;2024-02-16T00:05:08;9.50;99.90
15288;DHT22;7745;48.708;9.026;2024-02-16T00:07:37;9.50;99.90
15288;DHT22;7745;48.708;9.026;2024-02-16T00:10:06;9.50;99.90
15288;DHT22;7745;48.708;9.026;2024-02-16T00:12:34;9.50;99.90
15288;DHT22;7745;48.708;9.026;2024-02-16T00:15:01;9.70;99.90
15288;DHT22;7745;48.708;9.026;2024-02-16T00:17:31;9.80;99.90
15288;DHT22;7745;48.708;9.026;2024-02-16T00:19:59;9.80;99.90
15288;DHT22;7745;48.708;9.026;2024-02-16T00:22:26;9.70;99.90
15288;DHT22;7745;48.708;9.026;2024-02-16T00:24:53;9.70;99.90
15288;DHT22;7745;48.708;9.026;2024-02-16T00:27:21;9.70;99.90
15288;DHT22;7745;48.708;9.026;2024-02-16T00:29:48;9.80;99.90
15288;DHT22;7745;48.708;9.026;2024-02-16T00:32:15;9.70;99.90
15288;DHT22;7745;48.708;9.026;2024-02-16T00:34:43;9.60;99.90
15288;DHT22;7745;48.708;9.026;2024-02-16T00:37:10;9.60;99.90
15288;DHT22;7745;48.708;9.026;2024-02-16T00:39:38;9.70;99.90
15288;DHT22;7745;48.708;9.026;2024-02-16T00:42:06;9.60;99.90
15288;DHT22;7745;48.708;9.026;2024-02-16T00:44:35;9.70;99.90
15288;DHT22;7745;48.708;9.026;2024-02-16T00:47:01;9.70;99.90
15288;DHT22;7745;48.708;9.026;2024-02-16T00:49:31;9.80;99.90
15288;DHT22;7745;48.708;9.026;2024-02-16T00:51:58;10.10;99.90
15288;DHT22;7745;48.708;9.026;2024-02-16T00:54:25;9.90;99.90
15288;DHT22;7745;48.708;9.026;2024-02-16T00:56:52;10.10;99.90
15288;DHT22;7745;48.708;9.026;2024-02-16T00:59:20;10.20;99.90
15288;DHT22;7745;48.708;9.026;2024-02-16T01:01:48;10.20;99.90
15288;DHT22;7745;48.708;9.026;2024-02-16T01:04:15;10.20;99.90
15288;DHT22;7745;48.708;9.026;2024-02-16T01:06:42;10.20;99.90
15288;DHT22;7745;48.708;9.026;2024-02-16T01:09:09;10.10;99.90
15288;DHT22;7745;48.708;9.026;2024-02-16T01:11:39;10.50;99.90
15288;DHT22;7745;48.708;9.026;2024-02-16T01:14:06;10.10;99.90
15288;DHT22;7745;48.708;9.026;2024-02-16T01:16:33;10.00;99.90
15288;DHT22;7745;48.708;9.026;2024-02-16T01:19:02;10.00;99.90
15288;DHT22;7745;48.708;9.026;2024-02-16T01:21:31;10.00;99.90
15288;DHT22;7745;48.708;9.026;2024-02-16T01:23:59;10.00;99.90
15288;DHT22;7745;48.708;9.026;2024-02-16T01:26:26;10.10;99.90
15288;DHT22;7745;48.708;9.026;2024-02-16T01:28:53;9.90;99.90
15288;DHT22;7745;48.708;9.026;2024-02-16T01:31:20;10.10;99.90
15288;DHT22;7745;48.708;9.026;2024-02-16T01:33:47;9.90;99.90
15288;DHT22;7745;48.708;9.026;2024-02-16T01:36:15;10.30;99.90
15288;DHT22;7745;48.708;9.026;2024-02-16T01:38:42;10.10;99.90
15288;DHT22;7745;48.708;9.026;2024-02-16T01:41:09;10.20;99.90
15288;DHT22;7745;48.708;9.026;2024-02-16T01:43:36;10.00;99.90
15288;DHT22;7745;48.708;9.026;2024-02-16T01:46:03;9.90;99.90
15288;DHT22;7745;48.708;9.026;2024-02-16T01:48:30;10.00;99.90
15288;DHT22;7745;48.708;9.026;2024-02-16T01:50:59;10.00;99.90
15288;DHT22;7745;48.708;9.026;2024-02-16T01:53:29;10.00;99.90
15288;DHT22;7745;48.708;9.026;2024-02-16T01:55:56;10.00;99.90
15288;DHT22;7745;48.708;9.026;2024-02-16T01:58:23;9.90;99.90
15288;DHT22;7745;48.708;9.026;2024-02-16T02:00:50;9.80;99.90
15288;DHT22;7745;48.708;9.026;2024-02-16T02:03:18;9.70;99.90
15288;DHT22;7745;48.708;9.026;2024-02-16T02:05:45;10.00;99.90
15288;DHT22;7745;48.708;9.026;2024-02-16T02:08:13;9.70;99.90
15288;DHT22;7745;48.708;9.026;2024-02-16T02:10:42;9.60;99.90
15288;DHT22;7745;48.708;9.026;2024-02-16T02:13:09;9.60;99.90
15288;DHT22;7745;48.708;9.026;2024-02-16T02:15:36;9.50;99.90
15288;DHT22;7745;48.708;9.026;2024-02-16T02:18:03;9.50;99.90
15288;DHT22;7745;48.708;9.026;2024-02-16T02:20:30;9.50;99.90
15288;DHT22;7745;48.708;9.026;2024-02-16T02:22:58;9.70;99.90
15288;DHT22;7745;48.708;9.026;2024-02-16T02:25:25;9.50;99.90
15288;DHT22;7745;48.708;9.026;2024-02-16T02:27:54;9.50;99.90
15288;DHT22;7745;48.708;9.026;2024-02-16T02:30:21;9.50;99.90
15288;DHT22;7745;48.708;9.026;2024-02-16T02:32:49;9.50;99.90
15288;DHT22;7745;48.708;9.026;2024-02-16T02:35:17;9.50;99.90
15288;DHT22;7745;48.708;9.026;2024-02-16T02:37:44;9.50;99.90
15288;DHT22;7745;48.708;9.026;2024-02-16T02:40:13;9.90;99.90
15288;DHT22;7745;48.708;9.026;2024-02-16T02:42:40;9.50;99.90
15288;DHT22;7745;48.708;9.026;2024-02-16T02:45:08;9.40;99.90
15288;DHT22;7745;48.708;9.026;2024-02-16T02:47:35;9.40;99.90
15288;DHT22;7745;48.708;9.026;2024-02-16T02:50:02;9.40;99.90
15288;DHT22;7745;48.708;9.026;2024-02-16T02:52:30;9.40;99.90
15288;DHT22;7745;48.708;9.026;2024-02-16T02:54:56;9.40;99.90
15288;DHT22;7745;48.708;9.026;2024-02-16T02:57:25;9.40;99.90
15288;DHT22;7745;48.708;9.026;2024-02-16T02:59:51;9.40;99.90
15288;DHT22;7745;48.708;9.026;2024-02-16T03:02:18;9.40;99.90
15288;DHT22;7745;48.708;9.026;2024-02-16T03:04:45;9.40;99.90
15288;DHT22;7745;48.708;9.026;2024-02-16T03:07:12;9.40;99.90
15288;DHT22;7745;48.708;9.026;2024-02-16T03:09:40;9.60;99.90
15288;DHT22;7745;48.708;9.026;2024-02-16T03:12:09;9.60;99.90
15288;DHT22;7745;48.708;9.026;2024-02-16T03:14:38;9.40;99.90
15288;DHT22;7745;48.708;9.026;2024-02-16T03:17:05;9.40;99.90
15288;DHT22;7745;48.708;9.026;2024-02-16T03:19:32;9.30;99.90
15288;DHT22;7745;48.708;9.026;2024-02-16T03:21:58;9.30;99.90
15288;DHT22;7745;48.708;9.026;2024-02-16T03:24:25;9.30;99.90
15288;DHT22;7745;48.708;9.026;2024-02-16T03:26:52;9.30;99.90
15288;DHT22;7745;48.708;9.026;2024-02-16T03:29:19;9.40;99.90
15288;DHT22;7745;48.708;9.026;2024-02-16T03:31:47;9.30;99.90
15288;DHT22;7745;48.708;9.026;2024-02-16T03:34:14;9.30;99.90
15288;DHT22;7745;48.708;9.026;2024-02-16T03:36:41;9.30;99.90
15288;DHT22;7745;48.708;9.026;2024-02-16T03:39:08;9.30;99.90
15288;DHT22;7745;48.708;9.026;2024-02-16T03:41:35;9.30;99.90
15288;DHT22;7745;48.708;9.026;2024-02-16T03:44:02;9.20;99.90
15288;DHT22;7745;48.708;9.026;2024-02-16T03:46:29;9.20;99.90
15288;DHT22;7745;48.708;9.026;2024-02-16T03:48:58;9.40;99.90
15288;DHT22;7745;48.708;9.026;2024-02-16T03:51:24;9.50;99.90
15288;DHT22;7745;48.708;9.026;2024-02-16T03:53:51;9.40;99.90
15288;DHT22;7745;48.708;9.026;2024-02-16T03:56:20;9.40;99.90
15288;DHT22;7745;48.708;9.026;2024-02-16T03:58:47;9.20;99.90
15288;DHT22;7745;48.708;9.026;2024-02-16T04:01:14;9.20;99.90
15288;DHT22;7745;48.708;9.026;2024-02-16T04:03:41;9.20;99.90
15288;DHT22;7745;48.708;9.026;2024-02-16T04:06:09;9.20;99.90
15288;DHT22;7745;48.708;9.026;2024-02-16T04:08:36;9.20;99.90
15288;DHT22;7745;48.708;9.026;2024-02-16T04:11:03;9.20;99.90
15288;DHT22;7745;48.708;9.026;2024-02-16T04:13:30;9.30;99.90
15288;DHT22;7745;48.708;9.026;2024-02-16T04:15:58;9.30;99.90
15288;DHT22;7745;48.708;9.026;2024-02-16T04:18:25;9.60;99.90
15288;DHT22;7745;48.708;9.026;2024-02-16T04:20:52;9.60;99.90
15288;DHT22;7745;48.708;9.026;2024-02-16T04:23:20;9.40;99.90
15288;DHT22;7745;48.708;9.026;2024-02-16T04:25:47;9.30;99.90
15288;DHT22;7745;48.708;9.026;2024-02-16T04:28:14;9.60;99.90
15288;DHT22;7745;48.708;9.026;2024-02-16T04:30:40;9.50;99.90
15288;DHT22;7745;48.708;9.026;2024-02-16T04:33:08;9.50;99.90
15288;DHT22;7745;48.708;9.026;2024-02-16T04:35:34;9.80;99.90
15288;DHT22;7745;48.708;9.026;2024-02-16T04:38:01;9.70;99.90
15288;DHT22;7745;48.708;9.026;2024-02-16T04:40:35;9.60;99.90
15288;DHT22;7745;48.708;9.026;2024-02-16T04:43:02;9.50;99.90
15288;DHT22;7745;48.708;9.026;2024-02-16T04:45:29;9.50;99.90
15288;DHT22;7745;48.708;9.026;2024-02-16T04:47:56;9.70;99.90
15288;DHT22;7745;48.708;9.026;2024-02-16T04:50:24;9.70;99.90
15288;DHT22;7745;48.708;9.026;2024-02-16T04:52:51;9.50;99.90
15288;DHT22;7745;48.708;9.026;2024-02-16T04:55:18;9.40;99.90
15288;DHT22;7745;48.708;9.026;2024-02-16T04:57:46;9.40;99.90
15288;DHT22;7745;48.708;9.026;2024-02-16T05:00:14;9.40;99.90
15288;DHT22;7745;48.708;9.026;2024-02-16T05:02:41;9.40;99.90
15288;DHT22;7745;48.708;9.026;2024-02-16T05:05:08;9.40;99.90
15288;DHT22;7745;48.708;9.026;2024-02-16T05:07:35;9.40;99.90
15288;DHT22;7745;48.708;9.026;2024-02-16T05:10:03;9.50;99.90
15288;DHT22;7745;48.708;9.026;2024-02-16T05:12:30;9.50;99.90
15288;DHT22;7745;48.708;9.026;2024-02-16T05:14:58;9.70;99.90
15288;DHT22;7745;48.708;9.026;2024-02-16T05:17:25;9.40;99.90
15288;DHT22;7745;48.708;9.026;2024-02-16T05:19:52;9.50;99.90
15288;DHT22;7745;48.708;9.026;2024-02-16T05:22:20;9.50;99.90
15288;DHT22;7745;48.708;9.026;2024-02-16T05:24:48;9.70;99.90
15288;DHT22;7745;48.708;9.026;2024-02-16T05:27:15;9.80;99.90
15288;DHT22;7745;48.708;9.026;2024-02-16T05:29:42;9.60;99.90
15288;DHT22;7745;48.708;9.026;2024-02-16T05:32:11;9.60;99.90
15288;DHT22;7745;48.708;9.026;2024-02-16T05:34:38;9.60;99.90
15288;DHT22;7745;48.708;9.026;2024-02-16T05:37:05;9.50;99.90
15288;DHT22;7745;48.708;9.026;2024-02-16T05:39:32;9.70;99.90
15288;DHT22;7745;48.708;9.026;2024-02-16T05:42:01;9.50;99.90
15288;DHT22;7745;48.708;9.026;2024-02-16T05:44:28;9.50;99.90
15288;DHT22;7745;48.708;9.026;2024-02-16T05:46:55;9.50;99.90
15288;DHT22;7745;48.708;9.026;2024-02-16T05:49:24;9.40;99.90
15288;DHT22;7745;48.708;9.026;2024-02-16T05:51:51;9.40;99.90
15288;DHT22;7745;48.708;9.026;2024-02-16T05:54:31;9.30;99.90
15288;DHT22;7745;48.708;9.026;2024-02-16T05:56:58;9.30;99.90
15288;DHT22;7745;48.708;9.026;2024-02-16T05:59:25;9.20;99.90
15288;DHT22;7745;48.708;9.026;2024-02-16T06:01:52;9.10;99.90
15288;DHT22;7745;48.708;9.026;2024-02-16T06:04:19;9.10;99.90
15288;DHT22;7745;48.708;9.026;2024-02-16T06:06:47;9.10;99.90
15288;DHT22;7745;48.708;9.026;2024-02-16T06:09:14;9.10;99.90
15288;DHT22;7745;48.708;9.026;2024-02-16T06:11:41;9.10;99.90
15288;DHT22;7745;48.708;9.026;2024-02-16T06:14:08;9.30;99.90
15288;DHT22;7745;48.708;9.026;2024-02-16T06:16:35;8.90;99.90
15288;DHT22;7745;48.708;9.026;2024-02-16T06:19:01;8.90;99.90
15288;DHT22;7745;48.708;9.026;2024-02-16T06:21:28;8.90;99.90
15288;DHT22;7745;48.708;9.026;2024-02-16T06:23:56;8.90;99.90
15288;DHT22;7745;48.708;9.026;2024-02-16T06:26:23;8.90;99.90
15288;DHT22;7745;48.708;9.026;2024-02-16T06:28:52;9.30;99.90
15288;DHT22;7745;48.708;9.026;2024-02-16T06:31:26;9.30;99.90
15288;DHT22;7745;48.708;9.026;2024-02-16T06:34:01;9.00;99.90
15288;DHT22;7745;48.708;9.026;2024-02-16T06:36:37;9.00;99.90
15288;DHT22;7745;48.708;9.026;2024-02-16T06:39:05;9.30;99.90
15288;DHT22;7745;48.708;9.026;2024-02-16T06:41:32;9.00;99.90
15288;DHT22;7745;48.708;9.026;2024-02-16T06:43:59;9.20;99.90
15288;DHT22;7745;48.708;9.026;2024-02-16T06:46:26;8.80;99.90
15288;DHT22;7745;48.708;9.026;2024-02-16T06:48:54;8.80;99.90
15288;DHT22;7745;48.708;9.026;2024-02-16T06:51:22;8.80;99.90
15288;DHT22;7745;48.708;9.026;2024-02-16T06:53:49;8.70;99.90
15288;DHT22;7745;48.708;9.026;2024-02-16T06:56:18;8.70;99.90
15288;DHT22;7745;48.708;9.026;2024-02-16T06:58:45;8.70;99.90
15288;DHT22;7745;48.708;9.026;2024-02-16T07:01:12;8.70;99.90
15288;DHT22;7745;48.708;9.026;2024-02-16T07:03:39;8.80;99.90
15288;DHT22;7745;48.708;9.026;2024-02-16T07:06:07;8.70;99.90
15288;DHT22;7745;48.708;9.026;2024-02-16T07:08:35;8.70;99.90
15288;DHT22;7745;48.708;9.026;2024-02-16T07:11:03;8.70;99.90
15288;DHT22;7745;48.708;9.026;2024-02-16T07:13:31;8.70;99.90
15288;DHT22;7745;48.708;9.026;2024-02-16T07:15:58;8.90;99.90
15288;DHT22;7745;48.708;9.026;2024-02-16T07:18:25;8.80;99.90
15288;DHT22;7745;48.708;9.026;2024-02-16T07:20:52;8.90;99.90
15288;DHT22;7745;48.708;9.026;2024-02-16T07:23:19;8.90;99.90
15288;DHT22;7745;48.708;9.026;2024-02-16T07:25:46;9.00;99.90
15288;DHT22;7745;48.708;9.026;2024-02-16T07:28:14;9.00;99.90
15288;DHT22;7745;48.708;9.026;2024-02-16T07:30:48;9.00;99.90
15288;DHT22;7745;48.708;9.026;2024-02-16T07:33:15;9.10;99.90
15288;DHT22;7745;48.708;9.026;2024-02-16T07:35:42;9.20;99.90
15288;DHT22;7745;48.708;9.026;2024-02-16T07:38:09;9.10;99.90
15288;DHT22;7745;48.708;9.026;2024-02-16T07:40:36;9.20;99.90
15288;DHT22;7745;48.708;9.026;2024-02-16T07:43:03;9.30;99.90
15288;DHT22;7745;48.708;9.026;2024-02-16T07:45:31;9.30;99.90
15288;DHT22;7745;48.708;9.026;2024-02-16T07:48:00;9.30;99.90
15288;DHT22;7745;48.708;9.026;2024-02-16T07:50:31;9.40;99.90
15288;DHT22;7745;48.708;9.026;2024-02-16T07:53:03;9.40;99.90
15288;DHT22;7745;48.708;9.026;2024-02-16T07:55:35;9.50;99.90
15288;DHT22;7745;48.708;9.026;2024-02-16T07:58:09;9.70;99.90
15288;DHT22;7745;48.708;9.026;2024-02-16T08:00:36;9.60;99.90
15288;DHT22;7745;48.708;9.026;2024-02-16T08:03:08;9.60;99.90
15288;DHT22;7745;48.708;9.026;2024-02-16T08:05:35;9.70;99.90
15288;DHT22;7745;48.708;9.026;2024-02-16T08:08:05;9.80;99.90
15288;DHT22;7745;48.708;9.026;2024-02-16T08:10:33;9.90;99.90
15288;DHT22;7745;48.708;9.026;2024-02-16T08:13:01;10.00;99.90
15288;DHT22;7745;48.708;9.026;2024-02-16T08:15:28;10.10;99.90
15288;DHT22;7745;48.708;9.026;2024-02-16T08:17:58;10.30;99.90
15288;DHT22;7745;48.708;9.026;2024-02-16T08:20:28;10.70;99.90
15288;DHT22;7745;48.708;9.026;2024-02-16T08:22:58;10.40;99.90
15288;DHT22;7745;48.708;9.026;2024-02-16T08:25:28;10.50;99.90
15288;DHT22;7745;48.708;9.026;2024-02-16T08:27:56;10.60;99.90
15288;DHT22;7745;48.708;9.026;2024-02-16T08:30:23;10.80;99.90
15288;DHT22;7745;48.708;9.026;2024-02-16T08:33:09;10.80;99.90
15288;DHT22;7745;48.708;9.026;2024-02-16T08:35:37;11.00;99.90
15288;DHT22;7745;48.708;9.026;2024-02-16T08:38:05;11.00;99.90
15288;DHT22;7745;48.708;9.026;2024-02-16T08:40:35;11.10;99.90
15288;DHT22;7745;48.708;9.026;2024-02-16T08:43:20;11.30;99.90
15288;DHT22;7745;48.708;9.026;2024-02-16T08:45:47;11.30;99.90
15288;DHT22;7745;48.708;9.026;2024-02-16T08:48:14;11.40;99.90
15288;DHT22;7745;48.708;9.026;2024-02-16T08:50:45;11.50;99.90
15288;DHT22;7745;48.708;9.026;2024-02-16T08:53:13;11.60;99.90
15288;DHT22;7745;48.708;9.026;2024-02-16T08:55:41;11.70;99.90
15288;DHT22;7745;48.708;9.026;2024-02-16T08:58:08;11.80;99.90
15288;DHT22;7745;48.708;9.026;2024-02-16T09:00:35;12.00;99.90
15288;DHT22;7745;48.708;9.026;2024-02-16T09:03:03;12.10;99.90
15288;DHT22;7745;48.708;9.026;2024-02-16T09:05:31;12.20;99.90
15288;DHT22;7745;48.708;9.026;2024-02-16T09:08:00;12.30;99.90
15288;DHT22;7745;48.708;9.026;2024-02-16T09:10:27;12.80;99.90
15288;DHT22;7745;48.708;9.026;2024-02-16T09:12:54;12.60;99.90
15288;DHT22;7745;48.708;9.026;2024-02-16T09:15:21;12.70;99.90
15288;DHT22;7745;48.708;9.026;2024-02-16T09:17:51;12.80;99.90
15288;DHT22;7745;48.708;9.026;2024-02-16T09:20:20;12.90;99.90
15288;DHT22;7745;48.708;9.026;2024-02-16T09:22:48;13.00;99.90
15288;DHT22;7745;48.708;9.026;2024-02-16T09:25:26;13.20;99.90
15288;DHT22;7745;48.708;9.026;2024-02-16T09:27:53;13.30;99.90
15288;DHT22;7745;48.708;9.026;2024-02-16T09:30:29;13.40;99.90
15288;DHT22;7745;48.708;9.026;2024-02-16T09:32:56;13.50;99.90
15288;DHT22;7745;48.708;9.026;2024-02-16T09:35:23;13.60;99.90
15288;DHT22;7745;48.708;9.026;2024-02-16T09:37:50;13.70;99.90
15288;DHT22;7745;48.708;9.026;2024-02-16T09:40:19;13.60;99.90
15288;DHT22;7745;48.708;9.026;2024-02-16T09:42:48;13.50;99.90
15288;DHT22;7745;48.708;9.026;2024-02-16T09:45:16;13.80;99.90
15288;DHT22;7745;48.708;9.026;2024-02-16T09:47:43;13.80;99.90
15288;DHT22;7745;48.708;9.026;2024-02-16T09:50:12;13.60;99.90
15288;DHT22;7745;48.708;9.026;2024-02-16T09:52:40;13.50;99.90
15288;DHT22;7745;48.708;9.026;2024-02-16T09:55:11;13.80;99.90
15288;DHT22;7745;48.708;9.026;2024-02-16T09:57:40;13.90;99.90
15288;DHT22;7745;48.708;9.026;2024-02-16T10:00:09;14.10;99.90
15288;DHT22;7745;48.708;9.026;2024-02-16T10:02:40;14.00;99.90
15288;DHT22;7745;48.708;9.026;2024-02-16T10:05:13;14.00;99.90
15288;DHT22;7745;48.708;9.026;2024-02-16T10:07:40;14.10;99.90
15288;DHT22;7745;48.708;9.026;2024-02-16T10:10:19;14.30;99.90
15288;DHT22;7745;48.708;9.026;2024-02-16T10:12:48;14.30;99.90
15288;DHT22;7745;48.708;9.026;2024-02-16T10:15:19;14.50;99.90
15288;DHT22;7745;48.708;9.026;2024-02-16T10:17:57;14.40;99.90
15288;DHT22;7745;48.708;9.026;2024-02-16T10:20:24;14.50;99.90
15288;DHT22;7745;48.708;9.026;2024-02-16T10:23:02;14.50;99.90
15288;DHT22;7745;48.708;9.026;2024-02-16T10:25:29;14.80;99.90
15288;DHT22;7745;48.708;9.026;2024-02-16T10:27:57;14.90;99.90
15288;DHT22;7745;48.708;9.026;2024-02-16T10:30:29;14.70;99.90
15288;DHT22;7745;48.708;9.026;2024-02-16T10:32:57;14.80;99.90
15288;DHT22;7745;48.708;9.026;2024-02-16T10:35:25;14.80;99.90
15288;DHT22;7745;48.708;9.026;2024-02-16T10:37:52;14.80;99.90
15288;DHT22;7745;48.708;9.026;2024-02-16T10:40:22;14.80;99.90
15288;DHT22;7745;48.708;9.026;2024-02-16T10:42:50;14.80;99.90
15288;DHT22;7745;48.708;9.026;2024-02-16T10:45:18;14.80;99.90
15288;DHT22;7745;48.708;9.026;2024-02-16T10:47:47;15.00;99.90
15288;DHT22;7745;48.708;9.026;2024-02-16T10:50:13;14.80;99.90
15288;DHT22;7745;48.708;9.026;2024-02-16T10:52:41;14.80;99.90
15288;DHT22;7745;48.708;9.026;2024-02-16T10:55:10;14.80;99.90
15288;DHT22;7745;48.708;9.026;2024-02-16T10:57:40;14.80;99.90
15288;DHT22;7745;48.708;9.026;2024-02-16T11:00:33;14.90;99.90
15288;DHT22;7745;48.708;9.026;2024-02-16T11:07:10;14.90;99.90
15288;DHT22;7745;48.708;9.026;2024-02-16T11:17:23;15.00;99.90
15288;DHT22;7745;48.708;9.026;2024-02-16T11:19:50;15.10;99.90
15288;DHT22;7745;48.708;9.026;2024-02-16T11:22:20;15.10;99.90
15288;DHT22;7745;48.708;9.026;2024-02-16T11:24:49;15.20;99.90
15288;DHT22;7745;48.708;9.026;2024-02-16T11:27:17;15.20;99.90
15288;DHT22;7745;48.708;9.026;2024-02-16T11:29:46;15.20;99.90
15288;DHT22;7745;48.708;9.026;2024-02-16T11:32:13;15.20;99.90
15288;DHT22;7745;48.708;9.026;2024-02-16T11:34:41;15.30;99.90
15288;DHT22;7745;48.708;9.026;2024-02-16T11:37:08;15.30;99.90
15288;DHT22;7745;48.708;9.026;2024-02-16T11:39:35;15.40;99.90
15288;DHT22;7745;48.708;9.026;2024-02-16T11:42:04;15.50;99.90
15288;DHT22;7745;48.708;9.026;2024-02-16T11:44:32;15.60;99.90
15288;DHT22;7745;48.708;9.026;2024-02-16T11:46:59;15.60;99.90
15288;DHT22;7745;48.708;9.026;2024-02-16T11:49:28;15.70;99.90
15288;DHT22;7745;48.708;9.026;2024-02-16T11:51:59;15.80;99.90
15288;DHT22;7745;48.708;9.026;2024-02-16T11:54:26;15.90;99.90
15288;DHT22;7745;48.708;9.026;2024-02-16T11:56:53;16.00;99.90
15288;DHT22;7745;48.708;9.026;2024-02-16T11:59:20;16.00;99.90
15288;DHT22;7745;48.708;9.026;2024-02-16T12:01:54;16.10;99.90
15288;DHT22;7745;48.708;9.026;2024-02-16T12:04:22;16.10;99.90
15288;DHT22;7745;48.708;9.026;2024-02-16T12:06:54;16.20;99.90
15288;DHT22;7745;48.708;9.026;2024-02-16T12:09:23;16.30;99.90
15288;DHT22;7745;48.708;9.026;2024-02-16T12:11:51;16.30;99.90
15288;DHT22;7745;48.708;9.026;2024-02-16T12:14:21;16.40;99.90
15288;DHT22;7745;48.708;9.026;2024-02-16T12:16:48;16.50;99.90
15288;DHT22;7745;48.708;9.026;2024-02-16T12:19:16;16.60;99.90
15288;DHT22;7745;48.708;9.026;2024-02-16T12:21:43;16.60;99.90
15288;DHT22;7745;48.708;9.026;2024-02-16T12:24:10;16.60;99.90
15288;DHT22;7745;48.708;9.026;2024-02-16T12:26:38;16.60;99.90
15288;DHT22;7745;48.708;9.026;2024-02-16T12:29:06;16.60;99.90
15288;DHT22;7745;48.708;9.026;2024-02-16T12:31:34;16.60;99.90
15288;DHT22;7745;48.708;9.026;2024-02-16T12:34:03;16.60;99.90
15288;DHT22;7745;48.708;9.026;2024-02-16T12:36:32;16.60;99.90
15288;DHT22;7745;48.708;9.026;2024-02-16T12:38:59;16.60;99.90
15288;DHT22;7745;48.708;9.026;2024-02-16T12:41:28;16.60;99.90
15288;DHT22;7745;48.708;9.026;2024-02-16T12:43:56;16.50;99.90
15288;DHT22;7745;48.708;9.026;2024-02-16T12:46:23;16.60;99.90
15288;DHT22;7745;48.708;9.026;2024-02-16T12:48:50;16.60;99.90
15288;DHT22;7745;48.708;9.026;2024-02-16T12:51:19;16.70;99.90
15288;DHT22;7745;48.708;9.026;2024-02-16T12:53:46;16.60;99.90
15288;DHT22;7745;48.708;9.026;2024-02-16T12:56:13;16.60;99.90
15288;DHT22;7745;48.708;9.026;2024-02-16T12:58:39;16.70;99.90
15288;DHT22;7745;48.708;9.026;2024-02-16T13:01:08;16.70;99.90
15288;DHT22;7745;48.708;9.026;2024-02-16T13:03:36;16.70;99.90
15288;DHT22;7745;48.708;9.026;2024-02-16T13:06:05;16.70;99.90
15288;DHT22;7745;48.708;9.026;2024-02-16T13:08:32;16.70;99.90
15288;DHT22;7745;48.708;9.026;2024-02-16T13:10:59;16.80;99.90
15288;DHT22;7745;48.708;9.026;2024-02-16T13:13:26;16.80;99.90
15288;DHT22;7745;48.708;9.026;2024-02-16T13:15:53;16.70;99.90
15288;DHT22;7745;48.708;9.026;2024-02-16T13:18:26;16.70;99.90
15288;DHT22;7745;48.708;9.026;2024-02-16T13:20:53;16.70;99.90
15288;DHT22;7745;48.708;9.026;2024-02-16T13:23:20;16.70;99.90
15288;DHT22;7745;48.708;9.026;2024-02-16T13:25:47;16.70;99.90
15288;DHT22;7745;48.708;9.026;2024-02-16T13:28:14;16.60;99.90
15288;DHT22;7745;48.708;9.026;2024-02-16T13:30:41;16.60;99.90
15288;DHT22;7745;48.708;9.026;2024-02-16T13:33:08;16.50;99.90
15288;DHT22;7745;48.708;9.026;2024-02-16T13:35:37;16.50;99.90
15288;DHT22;7745;48.708;9.026;2024-02-16T13:38:04;16.40;99.90
15288;DHT22;7745;48.708;9.026;2024-02-16T13:40:31;16.30;99.90
15288;DHT22;7745;48.708;9.026;2024-02-16T13:42:59;16.20;99.90
15288;DHT22;7745;48.708;9.026;2024-02-16T13:45:27;16.20;99.90
15288;DHT22;7745;48.708;9.026;2024-02-16T13:47:56;16.10;99.90
15288;DHT22;7745;48.708;9.026;2024-02-16T13:50:23;16.00;99.90
15288;DHT22;7745;48.708;9.026;2024-02-16T13:52:52;16.00;99.90
15288;DHT22;7745;48.708;9.026;2024-02-16T13:55:20;15.90;99.90
15288;DHT22;7745;48.708;9.026;2024-02-16T13:57:47;15.80;99.90
15288;DHT22;7745;48.708;9.026;2024-02-16T14:00:15;15.80;99.90
15288;DHT22;7745;48.708;9.026;2024-02-16T14:02:42;15.80;99.90
15288;DHT22;7745;48.708;9.026;2024-02-16T14:05:09;15.80;99.90
15288;DHT22;7745;48.708;9.026;2024-02-16T14:07:37;15.80;99.90
15288;DHT22;7745;48.708;9.026;2024-02-16T14:10:07;15.80;99.90
15288;DHT22;7745;48.708;9.026;2024-02-16T14:12:34;15.90;99.90
15288;DHT22;7745;48.708;9.026;2024-02-16T14:15:01;15.90;99.90
15288;DHT22;7745;48.708;9.026;2024-02-16T14:17:29;15.90;99.90
15288;DHT22;7745;48.708;9.026;2024-02-16T14:19:56;15.90;99.90
15288;DHT22;7745;48.708;9.026;2024-02-16T14:22:23;15.90;99.90
15288;DHT22;7745;48.708;9.026;2024-02-16T14:24:50;15.90;99.90
15288;DHT22;7745;48.708;9.026;2024-02-16T14:27:19;15.90;99.90
15288;DHT22;7745;48.708;9.026;2024-02-16T14:29:45;15.90;99.90
15288;DHT22;7745;48.708;9.026;2024-02-16T14:32:12;15.80;99.90
15288;DHT22;7745;48.708;9.026;2024-02-16T14:34:39;15.80;99.90
15288;DHT22;7745;48.708;9.026;2024-02-16T14:37:12;15.80;99.90
15288;DHT22;7745;48.708;9.026;2024-02-16T14:39:39;15.80;99.90
15288;DHT22;7745;48.708;9.026;2024-02-16T14:42:06;15.70;99.90
15288;DHT22;7745;48.708;9.026;2024-02-16T14:44:34;15.70;99.90
15288;DHT22;7745;48.708;9.026;2024-02-16T14:47:01;15.70;99.90
15288;DHT22;7745;48.708;9.026;2024-02-16T14:49:28;15.70;99.90
15288;DHT22;7745;48.708;9.026;2024-02-16T14:51:56;15.70;99.90
15288;DHT22;7745;48.708;9.026;2024-02-16T14:54:23;15.70;99.90
15288;DHT22;7745;48.708;9.026;2024-02-16T14:56:51;15.80;99.90
15288;DHT22;7745;48.708;9.026;2024-02-16T14:59:18;15.70;99.90
15288;DHT22;7745;48.708;9.026;2024-02-16T15:01:47;15.70;99.90
15288;DHT22;7745;48.708;9.026;2024-02-16T15:04:14;15.70;99.90
15288;DHT22;7745;48.708;9.026;2024-02-16T15:06:42;15.60;99.90
15288;DHT22;7745;48.708;9.026;2024-02-16T15:09:09;15.60;99.90
15288;DHT22;7745;48.708;9.026;2024-02-16T15:11:41;15.60;99.90
15288;DHT22;7745;48.708;9.026;2024-02-16T15:14:12;15.50;99.90
15288;DHT22;7745;48.708;9.026;2024-02-16T15:16:39;15.50;99.90
15288;DHT22;7745;48.708;9.026;2024-02-16T15:19:08;15.50;99.90
15288;DHT22;7745;48.708;9.026;2024-02-16T15:21:35;15.50;99.90
15288;DHT22;7745;48.708;9.026;2024-02-16T15:24:04;15.40;99.90
15288;DHT22;7745;48.708;9.026;2024-02-16T15:26:31;15.40;99.90
15288;DHT22;7745;48.708;9.026;2024-02-16T15:28:58;15.40;99.90
15288;DHT22;7745;48.708;9.026;2024-02-16T15:31:25;15.30;99.90
15288;DHT22;7745;48.708;9.026;2024-02-16T15:33:51;15.30;99.90
15288;DHT22;7745;48.708;9.026;2024-02-16T15:36:20;15.20;99.90
15288;DHT22;7745;48.708;9.026;2024-02-16T15:38:47;15.20;99.90
15288;DHT22;7745;48.708;9.026;2024-02-16T15:41:16;15.10;99.90
15288;DHT22;7745;48.708;9.026;2024-02-16T15:43:43;15.00;99.90
15288;DHT22;7745;48.708;9.026;2024-02-16T15:46:10;15.00;99.90
15288;DHT22;7745;48.708;9.026;2024-02-16T15:48:36;15.00;99.90
15288;DHT22;7745;48.708;9.026;2024-02-16T15:51:03;14.90;99.90
15288;DHT22;7745;48.708;9.026;2024-02-16T15:53:34;14.90;99.90
15288;DHT22;7745;48.708;9.026;2024-02-16T15:56:01;14.90;99.90
15288;DHT22;7745;48.708;9.026;2024-02-16T15:58:30;14.80;99.90
15288;DHT22;7745;48.708;9.026;2024-02-16T16:00:57;14.80;99.90
15288;DHT22;7745;48.708;9.026;2024-02-16T16:03:24;14.80;99.90
15288;DHT22;7745;48.708;9.026;2024-02-16T16:05:51;14.80;99.90
15288;DHT22;7745;48.708;9.026;2024-02-16T16:08:18;14.70;99.90